createdAt,value
2018-02-02T05:00:20.158Z,2.65
2018-02-02T05:01:08.449Z,2.69
2018-02-02T05:01:33.970Z,2.67
2018-02-02T05:01:59.458Z,2.67
2018-02-02T05:02:25.098Z,2.77
2018-02-02T05:02:50.789Z,2.68
2018-02-02T05:03:16.326Z,2.75
2018-02-02T05:03:41.836Z,2.68
2018-02-02T05:04:07.317Z,2.77
2018-02-02T05:04:32.827Z,2.65
2018-02-02T05:05:21.142Z,2.64
2018-02-02T05:05:46.635Z,2.68
2018-02-02T05:06:45.193Z,2.64
2018-02-02T05:07:10.654Z,2.72
2018-02-02T05:08:14.248Z,2.68
2018-02-02T05:08:39.733Z,2.67
2018-02-02T05:09:05.214Z,2.67
2018-02-02T05:09:30.711Z,2.65
2018-02-02T05:09:56.250Z,2.65
2018-02-02T05:10:21.741Z,2.67
2018-02-02T05:10:47.266Z,2.68
2018-02-02T05:11:12.756Z,2.65
2018-02-02T05:11:38.252Z,2.71
2018-02-02T05:12:03.721Z,2.67
2018-02-02T05:12:29.203Z,2.62
2018-02-02T05:13:22.593Z,2.71
2018-02-02T05:13:48.089Z,2.67
2018-02-02T05:14:56.777Z,2.71
2018-02-02T05:15:22.270Z,2.67
2018-02-02T05:15:47.763Z,2.77
2018-02-02T05:16:13.258Z,2.72
2018-02-02T05:16:38.763Z,2.68
2018-02-02T05:17:04.283Z,2.68
2018-02-02T05:17:29.744Z,2.72
2018-02-02T05:17:55.242Z,2.74
2018-02-02T05:18:20.726Z,2.71
2018-02-02T05:18:46.232Z,2.72
2018-02-02T05:19:11.709Z,2.68
2018-02-02T05:19:37.200Z,2.68
2018-02-02T05:20:02.686Z,2.74
2018-02-02T05:20:28.154Z,2.67
2018-02-02T05:20:53.638Z,2.71
2018-02-02T05:21:19.123Z,2.67
2018-02-02T05:21:44.633Z,2.64
2018-02-02T05:22:10.107Z,2.61
2018-02-02T05:22:35.591Z,2.67
2018-02-02T05:23:01.095Z,2.71
2018-02-02T05:23:26.613Z,2.65
2018-02-02T05:23:52.146Z,2.67
2018-02-02T05:24:17.675Z,2.71
2018-02-02T05:24:43.148Z,2.71
2018-02-02T05:25:08.631Z,2.67
2018-02-02T05:25:34.130Z,2.68
2018-02-02T05:25:59.619Z,2.67
2018-02-02T05:26:25.079Z,2.69
2018-02-02T05:26:50.577Z,2.67
2018-02-02T05:27:16.075Z,2.67
2018-02-02T05:27:41.599Z,2.68
2018-02-02T05:28:07.074Z,2.61
2018-02-02T05:28:32.543Z,2.64
2018-02-02T05:28:58.022Z,2.67
2018-02-02T05:29:23.500Z,2.71
2018-02-02T05:29:48.992Z,2.72
2018-02-02T05:30:42.405Z,2.67
2018-02-02T05:31:07.926Z,2.68
2018-02-02T05:31:33.410Z,2.68
2018-02-02T05:31:58.899Z,2.65
2018-02-02T05:32:24.371Z,2.62
2018-02-02T05:32:49.882Z,2.68
2018-02-02T05:33:15.326Z,2.69
2018-02-02T05:33:40.889Z,2.67
2018-02-02T05:34:06.295Z,2.64
2018-02-02T05:34:31.759Z,2.68
2018-02-02T05:34:57.245Z,2.68
2018-02-02T05:35:22.720Z,2.64
2018-02-02T05:35:48.199Z,2.68
2018-02-02T05:36:13.673Z,2.62
2018-02-02T05:36:39.138Z,2.67
2018-02-02T05:37:42.727Z,2.62
2018-02-02T05:38:08.184Z,2.62
2018-02-02T05:38:33.679Z,2.65
2018-02-02T05:38:59.188Z,2.61
2018-02-02T05:39:24.678Z,2.64
2018-02-02T05:39:50.167Z,2.57
2018-02-02T05:40:15.673Z,2.64
2018-02-02T05:40:41.157Z,2.6
2018-02-02T05:41:06.622Z,2.64
2018-02-02T05:41:32.089Z,2.57
2018-02-02T05:41:57.602Z,2.62
2018-02-02T05:42:23.112Z,2.6
2018-02-02T05:43:26.713Z,2.57
2018-02-02T05:43:52.203Z,2.6
2018-02-02T05:44:17.716Z,2.56
2018-02-02T05:44:43.204Z,2.42
2018-02-02T05:45:08.685Z,2.46
2018-02-02T05:45:34.184Z,2.46
2018-02-02T05:45:59.672Z,2.56
2018-02-02T05:46:25.140Z,2.39
2018-02-02T05:47:13.418Z,2.38
2018-02-02T05:47:38.916Z,2.33
2018-02-02T05:48:04.410Z,2.31
2018-02-02T05:48:29.893Z,2.39
2018-02-02T05:48:55.395Z,2.42
2018-02-02T05:49:20.857Z,2.28
2018-02-02T05:49:46.447Z,2.35
2018-02-02T05:50:11.907Z,2.29
2018-02-02T05:50:37.405Z,2.35
2018-02-02T05:51:02.906Z,2.29
2018-02-02T05:51:28.336Z,2.24
2018-02-02T05:51:53.806Z,2.29
2018-02-02T05:52:19.283Z,2.29
2018-02-02T05:52:44.756Z,2.26
2018-02-02T05:53:10.238Z,2.28
2018-02-02T05:53:35.724Z,2.25
2018-02-02T05:54:01.187Z,2.26
2018-02-02T05:54:26.716Z,2.2
2018-02-02T05:54:52.125Z,2.15
2018-02-02T05:55:18.088Z,2.14
2018-02-02T05:55:43.534Z,2.13
2018-02-02T05:56:09.091Z,2.1
2018-02-02T05:56:34.575Z,2.1
2018-02-02T05:57:00.063Z,2.11
2018-02-02T05:57:25.571Z,2.11
2018-02-02T05:57:51.139Z,2.11
2018-02-02T05:58:16.652Z,2.07
2018-02-02T05:58:42.079Z,2.14
2018-02-02T05:59:07.574Z,2
2018-02-02T05:59:33.036Z,2.02
2018-02-02T05:59:58.505Z,2.07
2018-02-02T06:00:24.044Z,2
2018-02-02T06:00:49.484Z,1.95
2018-02-02T06:01:14.949Z,1.97
2018-02-02T06:01:40.445Z,1.99
2018-02-02T06:02:06.187Z,2.02
2018-02-02T06:02:31.647Z,1.97
2018-02-02T06:02:57.155Z,2
2018-02-02T06:03:22.624Z,2
2018-02-02T06:03:48.183Z,2.02
2018-02-02T06:04:13.635Z,1.99
2018-02-02T06:04:39.127Z,1.99
2018-02-02T06:05:04.701Z,1.95
2018-02-02T06:05:30.193Z,1.94
2018-02-02T06:05:55.715Z,1.97
2018-02-02T06:06:21.270Z,1.95
2018-02-02T06:06:46.749Z,1.95
2018-02-02T06:07:12.196Z,1.95
2018-02-02T06:07:37.643Z,1.95
2018-02-02T06:08:03.150Z,1.8
2018-02-02T06:08:28.610Z,1.92
2018-02-02T06:08:54.087Z,1.81
2018-02-02T06:09:19.560Z,1.95
2018-02-02T06:09:45.051Z,1.94
2018-02-02T06:10:10.485Z,1.91
2018-02-02T06:10:36.020Z,1.78
2018-02-02T06:11:01.486Z,1.87
2018-02-02T06:11:26.953Z,1.78
2018-02-02T06:11:52.486Z,1.88
2018-02-02T06:12:17.949Z,1.77
2018-02-02T06:12:43.411Z,1.78
2018-02-02T06:13:08.860Z,1.81
2018-02-02T06:13:34.315Z,1.81
2018-02-02T06:14:27.740Z,1.8
2018-02-02T06:14:53.224Z,1.77
2018-02-02T06:15:18.684Z,1.8
2018-02-02T06:15:44.162Z,1.92
2018-02-02T06:16:09.671Z,1.8
2018-02-02T06:16:35.053Z,1.89
2018-02-02T06:17:00.525Z,1.85
2018-02-02T06:18:04.074Z,1.88
2018-02-02T06:18:29.540Z,1.77
2018-02-02T06:18:55.027Z,1.81
2018-02-02T06:19:20.496Z,1.88
2018-02-02T06:20:14.224Z,1.84
2018-02-02T06:20:39.710Z,1.81
2018-02-02T06:21:05.187Z,1.74
2018-02-02T06:21:30.686Z,1.81
2018-02-02T06:21:56.089Z,1.81
2018-02-02T06:22:21.555Z,1.8
2018-02-02T06:22:47.008Z,1.81
2018-02-02T06:23:12.496Z,1.81
2018-02-02T06:23:37.911Z,1.8
2018-02-02T06:24:03.372Z,1.73
2018-02-02T06:24:28.847Z,1.78
2018-02-02T06:24:54.343Z,1.77
2018-02-02T06:25:19.821Z,1.8
2018-02-02T06:25:45.287Z,1.8
2018-02-02T06:26:10.763Z,1.8
2018-02-02T06:26:36.244Z,1.77
2018-02-02T06:27:01.730Z,1.66
2018-02-02T06:27:55.101Z,1.77
2018-02-02T06:28:20.584Z,1.81
2018-02-02T06:28:46.051Z,1.78
2018-02-02T06:29:11.498Z,1.77
2018-02-02T06:29:36.913Z,1.78
2018-02-02T06:30:02.442Z,1.81
2018-02-02T06:30:27.974Z,1.84
2018-02-02T06:30:53.496Z,1.7
2018-02-02T06:31:18.978Z,1.74
2018-02-02T06:31:44.404Z,1.73
2018-02-02T06:32:09.827Z,1.76
2018-02-02T06:32:35.330Z,1.8
2018-02-02T06:33:00.778Z,1.74
2018-02-02T06:33:26.193Z,1.78
2018-02-02T06:33:51.680Z,1.74
2018-02-02T06:34:17.167Z,1.74
2018-02-02T06:34:42.569Z,1.85
2018-02-02T06:35:08.058Z,1.78
2018-02-02T06:35:33.553Z,1.8
2018-02-02T06:36:37.132Z,1.8
2018-02-02T06:37:02.597Z,1.87
2018-02-02T06:37:28.079Z,1.8
2018-02-02T06:37:53.606Z,1.8
2018-02-02T06:38:19.044Z,1.8
2018-02-02T06:38:44.520Z,1.78
2018-02-02T06:39:10.048Z,1.78
2018-02-02T06:39:35.425Z,1.77
2018-02-02T06:40:00.952Z,1.77
2018-02-02T06:40:26.408Z,1.87
2018-02-02T06:40:52.036Z,1.84
2018-02-02T06:41:17.453Z,1.76
2018-02-02T06:41:42.892Z,1.8
2018-02-02T06:42:08.414Z,1.95
2018-02-02T06:42:33.859Z,1.81
2018-02-02T06:42:59.342Z,1.89
2018-02-02T06:43:24.809Z,1.89
2018-02-02T06:43:50.248Z,1.89
2018-02-02T06:44:15.724Z,1.89
2018-02-02T06:44:41.319Z,1.97
2018-02-02T06:45:06.753Z,1.87
2018-02-02T06:45:32.172Z,1.88
2018-02-02T06:45:57.634Z,1.91
2018-02-02T06:46:23.101Z,1.89
2018-02-02T06:46:48.594Z,1.84
2018-02-02T06:47:14.071Z,1.89
2018-02-02T06:47:39.539Z,1.87
2018-02-02T06:48:05.059Z,1.89
2018-02-02T06:48:30.619Z,1.87
2018-02-02T06:49:34.212Z,1.84
2018-02-02T06:49:59.696Z,1.92
2018-02-02T06:50:25.129Z,1.91
2018-02-02T06:50:50.581Z,1.92
2018-02-02T06:51:16.077Z,2.04
2018-02-02T06:51:41.503Z,1.95
2018-02-02T06:52:06.989Z,1.92
2018-02-02T06:52:32.415Z,1.94
2018-02-02T06:52:57.854Z,2.06
2018-02-02T06:53:23.354Z,1.97
2018-02-02T06:53:48.845Z,2
2018-02-02T06:54:14.264Z,2.02
2018-02-02T06:54:39.727Z,2.04
2018-02-02T06:55:05.177Z,2
2018-02-02T06:55:30.691Z,1.99
2018-02-02T06:55:56.150Z,2.07
2018-02-02T06:56:21.574Z,2.04
2018-02-02T06:56:47.047Z,2
2018-02-02T06:57:12.516Z,1.97
2018-02-02T06:57:37.975Z,2
2018-02-02T06:58:03.440Z,1.94
2018-02-02T06:58:28.910Z,2.06
2018-02-02T06:58:54.399Z,2.04
2018-02-02T06:59:19.862Z,2
2018-02-02T06:59:45.281Z,2.02
2018-02-02T07:00:10.792Z,2.13
2018-02-02T07:00:36.218Z,2.02
2018-02-02T07:01:01.671Z,2
2018-02-02T07:01:27.165Z,2.06
2018-02-02T07:01:52.589Z,2.02
2018-02-02T07:02:18.062Z,2.06
2018-02-02T07:02:43.498Z,2.13
2018-02-02T07:03:08.968Z,2.1
2018-02-02T07:03:34.448Z,2.02
2018-02-02T07:04:00.069Z,2.14
2018-02-02T07:05:08.719Z,2.14
2018-02-02T07:05:34.500Z,2.13
2018-02-02T07:05:59.998Z,2.07
2018-02-02T07:06:25.539Z,2.14
2018-02-02T07:06:50.922Z,2.14
2018-02-02T07:07:16.385Z,2.15
2018-02-02T07:07:41.828Z,2.14
2018-02-02T07:08:07.317Z,2.17
2018-02-02T07:08:32.777Z,2.18
2018-02-02T07:08:58.249Z,2.2
2018-02-02T07:09:23.704Z,2.17
2018-02-02T07:09:49.177Z,2.14
2018-02-02T07:10:14.603Z,2.15
2018-02-02T07:10:40.113Z,2.22
2018-02-02T07:11:05.573Z,2.14
2018-02-02T07:11:31.098Z,2.18
2018-02-02T07:11:56.596Z,2.18
2018-02-02T07:12:22.039Z,2.26
2018-02-02T07:13:15.456Z,2.25
2018-02-02T07:13:40.939Z,2.25
2018-02-02T07:14:06.454Z,2.26
2018-02-02T07:14:31.899Z,2.24
2018-02-02T07:14:57.364Z,2.17
2018-02-02T07:15:22.832Z,2.26
2018-02-02T07:15:48.295Z,2.26
2018-02-02T07:16:13.772Z,2.28
2018-02-02T07:16:39.220Z,2.24
2018-02-02T07:17:04.662Z,2.25
2018-02-02T07:17:30.111Z,2.22
2018-02-02T07:17:55.559Z,2.33
2018-02-02T07:18:21.038Z,2.26
2018-02-02T07:18:46.474Z,2.29
2018-02-02T07:19:11.958Z,2.29
2018-02-02T07:19:37.387Z,2.28
2018-02-02T07:20:02.863Z,2.26
2018-02-02T07:20:28.336Z,2.28
2018-02-02T07:20:53.812Z,2.24
2018-02-02T07:21:19.280Z,2.24
2018-02-02T07:21:44.770Z,2.29
2018-02-02T07:22:10.255Z,2.29
2018-02-02T07:22:35.729Z,2.29
2018-02-02T07:23:44.415Z,2.38
2018-02-02T07:24:09.894Z,2.38
2018-02-02T07:24:35.393Z,2.38
2018-02-02T07:25:00.843Z,2.35
2018-02-02T07:25:26.313Z,2.38
2018-02-02T07:25:51.818Z,2.39
2018-02-02T07:26:17.312Z,2.33
2018-02-02T07:26:42.797Z,2.35
2018-02-02T07:27:08.317Z,2.25
2018-02-02T07:27:33.811Z,2.28
2018-02-02T07:27:59.273Z,2.28
2018-02-02T07:28:24.717Z,2.35
2018-02-02T07:28:50.165Z,2.39
2018-02-02T07:29:15.723Z,2.32
2018-02-02T07:29:41.172Z,2.36
2018-02-02T07:30:06.623Z,2.31
2018-02-02T07:30:32.117Z,2.25
2018-02-02T07:30:57.582Z,2.33
2018-02-02T07:31:23.068Z,2.38
2018-02-02T07:31:48.494Z,2.31
2018-02-02T07:32:14.010Z,2.32
2018-02-02T07:32:39.468Z,2.46
2018-02-02T07:33:04.910Z,2.33
2018-02-02T07:33:30.373Z,2.43
2018-02-02T07:34:39.045Z,2.44
2018-02-02T07:35:04.549Z,2.36
2018-02-02T07:35:30.010Z,2.38
2018-02-02T07:35:55.465Z,2.46
2018-02-02T07:36:20.944Z,2.36
2018-02-02T07:36:46.463Z,2.38
2018-02-02T07:37:11.951Z,2.42
2018-02-02T07:37:37.395Z,2.46
2018-02-02T07:38:02.840Z,2.43
2018-02-02T07:38:51.122Z,2.39
2018-02-02T07:39:16.597Z,2.39
2018-02-02T07:39:42.075Z,2.38
2018-02-02T07:40:07.520Z,2.42
2018-02-02T07:40:32.979Z,2.47
2018-02-02T07:40:58.464Z,2.49
2018-02-02T07:41:23.886Z,2.47
2018-02-02T07:41:49.351Z,2.49
2018-02-02T07:42:14.777Z,2.5
2018-02-02T07:42:40.274Z,2.44
2018-02-02T07:43:05.691Z,2.49
2018-02-02T07:43:31.150Z,2.46
2018-02-02T07:43:56.658Z,2.42
2018-02-02T07:44:22.116Z,2.46
2018-02-02T07:44:47.556Z,2.54
2018-02-02T07:45:13.063Z,2.51
2018-02-02T07:45:38.535Z,2.56
2018-02-02T07:46:04.089Z,2.54
2018-02-02T07:46:29.462Z,2.56
2018-02-02T07:46:54.937Z,2.54
2018-02-02T07:47:20.418Z,2.6
2018-02-02T07:47:45.836Z,2.53
2018-02-02T07:48:11.303Z,2.6
2018-02-02T07:48:36.818Z,2.6
2018-02-02T07:49:02.246Z,2.64
2018-02-02T07:49:27.718Z,2.56
2018-02-02T07:49:53.170Z,2.64
2018-02-02T07:50:18.664Z,2.54
2018-02-02T07:50:44.125Z,2.62
2018-02-02T07:51:09.588Z,2.56
2018-02-02T07:51:35.010Z,2.61
2018-02-02T07:52:00.506Z,2.6
2018-02-02T07:52:25.953Z,2.64
2018-02-02T07:52:51.433Z,2.62
2018-02-02T07:53:16.893Z,2.62
2018-02-02T07:53:42.340Z,2.6
2018-02-02T07:54:07.804Z,2.61
2018-02-02T07:54:33.232Z,2.65
2018-02-02T07:54:58.742Z,2.67
2018-02-02T07:55:24.260Z,2.61
2018-02-02T07:55:49.705Z,2.57
2018-02-02T07:56:15.173Z,2.61
2018-02-02T07:56:40.621Z,2.61
2018-02-02T07:57:06.083Z,2.6
2018-02-02T07:57:31.565Z,2.62
2018-02-02T07:57:56.998Z,2.57
2018-02-02T07:58:22.471Z,2.62
2018-02-02T07:58:47.971Z,2.67
2018-02-02T07:59:13.409Z,2.64
2018-02-02T07:59:38.895Z,2.65
2018-02-02T08:00:04.350Z,2.69
2018-02-02T08:00:29.827Z,2.69
2018-02-02T08:00:55.301Z,2.8
2018-02-02T08:01:20.831Z,2.75
2018-02-02T08:01:46.322Z,2.79
2018-02-02T08:02:11.931Z,2.77
2018-02-02T08:03:15.517Z,2.8
2018-02-02T08:03:41.011Z,2.86
2018-02-02T08:04:06.502Z,2.79
2018-02-02T08:04:31.970Z,2.85
2018-02-02T08:04:57.458Z,2.8
2018-02-02T08:05:23.001Z,2.82
2018-02-02T08:05:48.462Z,2.87
2018-02-02T08:06:13.999Z,2.89
2018-02-02T08:06:39.490Z,2.89
2018-02-02T08:07:04.958Z,2.9
2018-02-02T08:07:30.451Z,2.89
2018-02-02T08:07:55.942Z,2.92
2018-02-02T08:08:54.955Z,2.93
2018-02-02T08:09:19.971Z,2.9
2018-02-02T08:09:45.508Z,2.92
2018-02-02T08:10:10.968Z,2.87
2018-02-02T08:10:36.461Z,2.86
2018-02-02T08:11:01.905Z,2.9
2018-02-02T08:11:27.495Z,2.86
2018-02-02T08:11:52.944Z,2.9
2018-02-02T08:12:18.411Z,2.92
2018-02-02T08:12:43.884Z,2.9
2018-02-02T08:13:09.479Z,2.86
2018-02-02T08:13:34.858Z,2.92
2018-02-02T08:14:00.861Z,2.9
2018-02-02T08:14:26.408Z,3
2018-02-02T08:14:51.832Z,2.89
2018-02-02T08:15:17.323Z,2.95
2018-02-02T08:15:42.842Z,2.86
2018-02-02T08:16:08.289Z,2.93
2018-02-02T08:16:33.830Z,2.92
2018-02-02T08:16:59.282Z,2.95
2018-02-02T08:17:24.773Z,2.93
2018-02-02T08:17:50.240Z,2.9
2018-02-02T08:18:15.699Z,2.92
2018-02-02T08:18:41.200Z,2.98
2018-02-02T08:19:06.750Z,2.92
2018-02-02T08:19:32.250Z,2.9
2018-02-02T08:19:57.806Z,2.95
2018-02-02T08:20:23.252Z,2.9
2018-02-02T08:20:48.717Z,2.86
2018-02-02T08:21:14.200Z,3.07
2018-02-02T08:21:39.660Z,3
2018-02-02T08:22:05.184Z,2.97
2018-02-02T08:22:30.729Z,2.95
2018-02-02T08:22:56.252Z,3
2018-02-02T08:23:21.749Z,2.95
2018-02-02T08:23:47.206Z,2.97
2018-02-02T08:24:12.672Z,2.98
2018-02-02T08:24:38.127Z,3.05
2018-02-02T08:25:03.607Z,2.98
2018-02-02T08:25:29.081Z,3.01
2018-02-02T08:25:54.571Z,3
2018-02-02T08:26:20.018Z,2.98
2018-02-02T08:26:45.489Z,3.04
2018-02-02T08:27:10.943Z,3
2018-02-02T08:27:36.450Z,3.05
2018-02-02T08:28:01.898Z,3.03
2018-02-02T08:29:10.573Z,3.03
2018-02-02T08:29:36.067Z,3.01
2018-02-02T08:30:39.654Z,3
2018-02-02T08:31:05.182Z,3.05
2018-02-02T08:31:30.684Z,3.08
2018-02-02T08:31:56.202Z,3.03
2018-02-02T08:32:21.656Z,3.04
2018-02-02T08:32:47.115Z,3.1
2018-02-02T08:33:12.567Z,3.11
2018-02-02T08:33:38.047Z,3.11
2018-02-02T08:34:03.533Z,3.05
2018-02-02T08:34:29.080Z,3.13
2018-02-02T08:34:54.533Z,3.04
2018-02-02T08:35:20.051Z,3.05
2018-02-02T08:35:45.543Z,3.08
2018-02-02T08:36:11.001Z,3.08
2018-02-02T08:36:36.469Z,3.07
2018-02-02T08:37:01.968Z,3.13
2018-02-02T08:37:27.396Z,3.05
2018-02-02T08:37:52.980Z,3.04
2018-02-02T08:38:18.477Z,3
2018-02-02T08:38:43.987Z,3.1
2018-02-02T08:39:09.480Z,3.13
2018-02-02T08:39:34.958Z,3.08
2018-02-02T08:40:00.425Z,2.98
2018-02-02T08:41:03.974Z,3.11
2018-02-02T08:41:29.459Z,3.04
2018-02-02T08:41:54.931Z,3.11
2018-02-02T08:42:20.410Z,3.01
2018-02-02T08:42:45.846Z,3.01
2018-02-02T08:43:34.142Z,3.04
2018-02-02T08:44:42.827Z,3.05
2018-02-02T08:45:08.325Z,3.08
2018-02-02T08:45:33.798Z,3.07
2018-02-02T08:45:59.303Z,3.04
2018-02-02T09:10:42.603Z,3.31
2018-02-02T09:11:08.304Z,3.37
2018-02-02T09:11:33.842Z,3.28
2018-02-02T09:11:59.304Z,3.37
2018-02-02T09:12:24.777Z,3.37
2018-02-02T09:12:50.312Z,3.41
2018-02-02T09:13:43.753Z,3.31
2018-02-02T09:14:09.260Z,3.25
2018-02-02T09:14:34.783Z,3.34
2018-02-02T09:15:00.309Z,3.34
2018-02-02T09:15:25.818Z,3.4
2018-02-02T09:16:19.238Z,3.37
2018-02-02T09:16:44.750Z,3.47
2018-02-02T09:17:10.228Z,3.42
2018-02-02T09:17:35.724Z,3.45
2018-02-02T09:18:01.218Z,3.37
2018-02-02T09:18:26.691Z,3.44
2018-02-02T09:18:52.197Z,3.34
2018-02-02T09:19:17.701Z,3.31
2018-02-02T09:19:43.201Z,3.34
2018-02-02T09:20:08.682Z,3.42
2018-02-02T09:20:34.517Z,3.34
2018-02-02T09:21:00.008Z,3.44
2018-02-02T09:21:25.497Z,3.41
2018-02-02T09:21:50.999Z,3.44
2018-02-02T09:22:16.508Z,3.45
2018-02-02T09:22:42.017Z,3.44
2018-02-02T09:23:07.490Z,3.42
2018-02-02T09:23:33.029Z,3.42
2018-02-02T09:23:58.527Z,3.41
2018-02-02T09:24:24.018Z,3.45
2018-02-02T09:24:49.502Z,3.48
2018-02-02T09:25:14.979Z,3.42
2018-02-02T09:25:40.451Z,3.48
2018-02-02T09:26:05.938Z,3.5
2018-02-02T09:26:31.395Z,3.5
2018-02-02T09:26:56.888Z,3.48
2018-02-02T09:27:22.347Z,3.56
2018-02-02T09:27:47.880Z,3.5
2018-02-02T09:28:13.357Z,3.45
2018-02-02T09:28:38.914Z,3.5
2018-02-02T09:29:04.400Z,3.5
2018-02-02T09:29:29.884Z,3.55
2018-02-02T09:29:55.346Z,3.42
2018-02-02T09:30:20.851Z,3.55
2018-02-02T09:30:46.402Z,3.55
2018-02-02T09:31:11.884Z,3.55
2018-02-02T09:31:37.377Z,3.59
2018-02-02T09:32:02.884Z,3.5
2018-02-02T09:32:28.379Z,3.55
2018-02-02T09:32:53.875Z,3.48
2018-02-02T09:33:19.444Z,3.6
2018-02-02T09:33:44.914Z,3.59
2018-02-02T09:34:10.428Z,3.66
2018-02-02T09:34:36.029Z,3.66
2018-02-02T09:35:01.496Z,3.62
2018-02-02T09:35:54.997Z,3.62
2018-02-02T09:36:20.473Z,3.68
2018-02-02T09:36:45.955Z,3.7
2018-02-02T09:37:11.416Z,3.66
2018-02-02T09:37:36.952Z,3.63
2018-02-02T09:38:02.414Z,3.68
2018-02-02T09:38:27.991Z,3.63
2018-02-02T09:38:53.468Z,3.69
2018-02-02T09:39:19.269Z,3.76
2018-02-02T09:39:44.771Z,3.7
2018-02-02T09:40:10.279Z,3.65
2018-02-02T09:40:35.778Z,3.6
2018-02-02T09:41:01.304Z,3.69
2018-02-02T09:41:26.805Z,3.77
2018-02-02T09:41:52.287Z,3.8
2018-02-02T09:42:17.782Z,3.77
2018-02-02T09:42:43.282Z,3.84
2018-02-02T09:43:08.788Z,3.7
2018-02-02T09:43:34.314Z,3.78
2018-02-02T09:44:43.066Z,3.8
2018-02-02T09:45:08.574Z,3.76
2018-02-02T09:45:34.086Z,3.83
2018-02-02T09:45:59.562Z,3.87
2018-02-02T09:46:25.062Z,3.84
2018-02-02T09:46:50.600Z,3.84
2018-02-02T09:47:16.093Z,3.86
2018-02-02T09:47:41.558Z,3.86
2018-02-02T09:48:07.063Z,3.95
2018-02-02T09:48:32.569Z,3.92
2018-02-02T09:48:58.088Z,3.91
2018-02-02T09:49:23.473Z,3.94
2018-02-02T09:49:49.045Z,3.92
2018-02-02T09:50:14.541Z,3.96
2018-02-02T09:50:40.043Z,3.94
2018-02-02T09:51:05.550Z,3.98
2018-02-02T09:51:31.035Z,4.01
2018-02-02T09:51:56.530Z,3.98
2018-02-02T09:52:22.100Z,4.01
2018-02-02T09:52:47.629Z,3.94
2018-02-02T09:53:13.077Z,4.08
2018-02-02T09:53:38.594Z,3.94
2018-02-02T09:54:04.128Z,4.01
2018-02-02T09:54:29.628Z,4.05
2018-02-02T09:54:55.142Z,4.04
2018-02-02T09:55:20.630Z,4.06
2018-02-02T09:55:46.110Z,3.98
2018-02-02T09:56:11.619Z,4.05
2018-02-02T09:56:37.116Z,4.06
2018-02-02T09:57:30.862Z,4.06
2018-02-02T09:57:56.350Z,3.96
2018-02-02T09:58:21.817Z,4.01
2018-02-02T09:58:47.311Z,4.06
2018-02-02T09:59:12.783Z,3.95
2018-02-02T09:59:38.301Z,4.05
2018-02-02T10:00:03.791Z,3.99
2018-02-02T10:00:29.273Z,3.99
2018-02-02T10:00:54.845Z,3.99
2018-02-02T10:01:20.345Z,4.1
2018-02-02T10:01:45.802Z,3.98
2018-02-02T10:02:11.293Z,4.08
2018-02-02T10:02:36.803Z,3.98
2018-02-02T10:03:02.247Z,4.1
2018-02-02T10:03:27.745Z,3.98
2018-02-02T10:03:53.252Z,3.98
2018-02-02T10:04:18.751Z,3.98
2018-02-02T10:04:44.223Z,4.1
2018-02-02T10:05:09.783Z,3.99
2018-02-02T10:05:35.282Z,4.06
2018-02-02T10:06:00.737Z,4.01
2018-02-02T10:06:26.210Z,4.02
2018-02-02T10:06:51.716Z,3.98
2018-02-02T10:07:17.206Z,4.01
2018-02-02T10:07:42.903Z,4.08
2018-02-02T10:08:08.220Z,4.14
2018-02-02T10:08:33.708Z,4.01
2018-02-02T10:08:59.222Z,3.99
2018-02-02T10:09:24.693Z,4.01
2018-02-02T10:09:50.175Z,4.08
2018-02-02T10:10:15.690Z,4.1
2018-02-02T10:10:41.156Z,4.05
2018-02-02T10:11:06.660Z,4.08
2018-02-02T10:11:32.448Z,4.06
2018-02-02T10:11:57.844Z,4.13
2018-02-02T10:12:23.344Z,4.04
2018-02-02T10:13:11.641Z,4.08
2018-02-02T10:13:37.122Z,4.08
2018-02-02T10:14:02.621Z,4.2
2018-02-02T10:14:28.095Z,4.16
2018-02-02T10:14:53.593Z,4.13
2018-02-02T10:15:19.100Z,4.17
2018-02-02T10:15:44.573Z,4.2
2018-02-02T10:16:10.050Z,4.14
2018-02-02T10:16:35.589Z,4.24
2018-02-02T10:17:01.068Z,4.26
2018-02-02T10:17:26.554Z,4.23
2018-02-02T10:17:52.050Z,4.17
2018-02-02T10:18:17.537Z,4.26
2018-02-02T10:18:43.079Z,4.32
2018-02-02T10:19:08.590Z,4.28
2018-02-02T10:19:34.049Z,4.24
2018-02-02T10:19:59.587Z,4.35
2018-02-02T10:20:53.738Z,4.31
2018-02-02T10:21:19.249Z,4.32
2018-02-02T10:21:44.767Z,4.32
2018-02-02T10:22:10.230Z,4.26
2018-02-02T10:22:35.696Z,4.24
2018-02-02T10:23:01.176Z,4.3
2018-02-02T10:23:26.650Z,4.28
2018-02-02T10:23:52.111Z,4.34
2018-02-02T10:24:45.533Z,4.31
2018-02-02T10:25:11.035Z,4.34
2018-02-02T10:25:36.511Z,4.28
2018-02-02T10:26:01.985Z,4.34
2018-02-02T10:26:27.479Z,4.41
2018-02-02T10:26:52.949Z,4.32
2018-02-02T10:27:18.423Z,4.34
2018-02-02T10:27:43.893Z,4.34
2018-02-02T10:28:09.420Z,4.34
2018-02-02T10:28:34.911Z,4.4
2018-02-02T10:29:00.404Z,4.35
2018-02-02T10:29:25.880Z,4.41
2018-02-02T10:29:51.366Z,4.37
2018-02-02T10:30:16.873Z,4.41
2018-02-02T10:30:42.349Z,4.4
2018-02-02T10:31:07.830Z,4.41
2018-02-02T10:31:33.295Z,4.38
2018-02-02T10:31:58.756Z,4.48
2018-02-02T10:32:24.340Z,4.45
2018-02-02T10:32:49.923Z,4.34
2018-02-02T10:33:15.457Z,4.44
2018-02-02T10:33:40.964Z,4.41
2018-02-02T10:34:06.469Z,4.45
2018-02-02T10:34:31.932Z,4.49
2018-02-02T10:34:57.479Z,4.45
2018-02-02T10:35:22.981Z,4.5
2018-02-02T10:36:27.671Z,4.41
2018-02-02T10:36:53.211Z,4.44
2018-02-02T10:37:18.681Z,4.44
2018-02-02T10:37:44.131Z,4.44
2018-02-02T10:38:09.621Z,4.45
2018-02-02T10:38:35.127Z,4.48
2018-02-02T10:39:00.640Z,4.45
2018-02-02T10:39:26.177Z,4.44
2018-02-02T10:39:51.695Z,4.41
2018-02-02T10:40:17.184Z,4.53
2018-02-02T10:40:42.663Z,4.49
2018-02-02T10:41:36.105Z,4.5
2018-02-02T10:42:01.582Z,4.49
2018-02-02T10:42:27.110Z,4.41
2018-02-02T10:42:52.595Z,4.49
2018-02-02T10:43:18.125Z,4.52
2018-02-02T10:43:43.680Z,4.4
2018-02-02T10:44:09.174Z,4.49
2018-02-02T10:44:34.690Z,4.49
2018-02-02T10:45:00.192Z,4.38
2018-02-02T10:45:25.671Z,4.38
2018-02-02T10:45:51.219Z,4.45
2018-02-02T10:46:16.691Z,4.44
2018-02-02T10:46:42.168Z,4.45
2018-02-02T10:47:07.655Z,4.45
2018-02-02T10:47:33.123Z,4.45
2018-02-02T10:47:58.609Z,4.42
2018-02-02T10:48:24.111Z,4.49
2018-02-02T10:48:49.571Z,4.52
2018-02-02T10:49:15.082Z,4.48
2018-02-02T10:49:40.557Z,4.44
2018-02-02T10:50:06.100Z,4.53
2018-02-02T10:50:31.613Z,4.56
2018-02-02T10:51:25.059Z,4.59
2018-02-02T10:51:50.543Z,4.5
2018-02-02T10:52:16.046Z,4.6
2018-02-02T10:52:41.490Z,4.56
2018-02-02T10:53:07.015Z,4.53
2018-02-02T10:53:32.469Z,4.6
2018-02-02T10:53:57.919Z,4.6
2018-02-02T10:54:46.212Z,4.58
2018-02-02T10:55:11.709Z,4.6
2018-02-02T10:55:37.177Z,4.59
2018-02-02T10:56:02.651Z,4.63
2018-02-02T10:56:28.136Z,4.71
2018-02-02T10:56:53.621Z,4.62
2018-02-02T10:57:19.104Z,4.67
2018-02-02T10:57:44.657Z,4.63
2018-02-02T10:58:10.135Z,4.59
2018-02-02T10:58:35.655Z,4.6
2018-02-02T10:59:01.192Z,4.67
2018-02-02T10:59:26.649Z,4.67
2018-02-02T10:59:52.143Z,4.73
2018-02-02T11:00:17.683Z,4.77
2018-02-02T11:00:43.112Z,4.74
2018-02-02T11:01:08.574Z,4.75
2018-02-02T11:01:34.088Z,4.82
2018-02-02T11:01:59.622Z,4.78
2018-02-02T11:02:25.127Z,4.84
2018-02-02T11:02:50.568Z,4.77
2018-02-02T11:03:16.076Z,4.77
2018-02-02T11:03:41.618Z,4.8
2018-02-02T11:04:07.068Z,4.74
2018-02-02T11:04:32.584Z,4.77
2018-02-02T11:04:58.053Z,4.78
2018-02-02T11:05:23.538Z,4.82
2018-02-02T11:05:49.054Z,4.84
2018-02-02T11:06:14.541Z,4.94
2018-02-02T11:06:40.053Z,4.93
2018-02-02T11:07:38.571Z,4.86
2018-02-02T11:08:04.122Z,4.96
2018-02-02T11:08:29.596Z,4.92
2018-02-02T11:09:38.288Z,4.93
2018-02-02T11:10:03.787Z,4.97
2018-02-02T11:10:29.292Z,4.93
2018-02-02T11:10:54.741Z,4.93
2018-02-02T11:11:20.244Z,4.94
2018-02-02T11:11:45.746Z,4.94
2018-02-02T11:12:11.260Z,4.96
2018-02-02T11:12:36.762Z,5.04
2018-02-02T11:13:02.276Z,5.05
2018-02-02T11:13:27.767Z,5.02
2018-02-02T11:13:53.243Z,5.08
2018-02-02T11:14:18.729Z,4.99
2018-02-02T11:14:44.172Z,5.1
2018-02-02T11:15:09.697Z,5.14
2018-02-02T11:15:35.265Z,5.1
2018-02-02T11:16:00.770Z,5.07
2018-02-02T11:16:26.226Z,5.08
2018-02-02T11:16:51.716Z,5.1
2018-02-02T11:17:17.241Z,5.08
2018-02-02T11:17:42.692Z,5.08
2018-02-02T11:18:08.161Z,5.1
2018-02-02T11:18:33.720Z,5.1
2018-02-02T11:18:59.195Z,5.08
2018-02-02T11:19:24.699Z,5.08
2018-02-02T11:19:50.193Z,5.08
2018-02-02T11:20:15.683Z,5.11
2018-02-02T11:20:41.150Z,5.08
2018-02-02T11:21:06.668Z,5.1
2018-02-02T11:21:32.134Z,5.1
2018-02-02T11:21:57.600Z,5.11
2018-02-02T11:22:23.105Z,5.1
2018-02-02T11:22:48.620Z,5.08
2018-02-02T11:23:14.132Z,5.12
2018-02-02T11:23:39.655Z,5.1
2018-02-02T11:24:05.109Z,5.17
2018-02-02T11:24:30.579Z,5.08
2018-02-02T11:24:56.129Z,5.12
2018-02-02T11:25:21.588Z,5.1
2018-02-02T11:25:47.120Z,5.1
2018-02-02T11:26:12.593Z,5.12
2018-02-02T11:26:38.149Z,5.18
2018-02-02T11:27:03.612Z,5.1
2018-02-02T11:27:29.171Z,5.1
2018-02-02T11:27:54.640Z,5.1
2018-02-02T11:28:20.137Z,5.15
2018-02-02T11:28:45.680Z,5.1